Aérodrome :
LOGIN :

S'inscrire | Disclaimer

   EN    FR    IT 

 










Légende :    VFR   VFR Marginal   IFR   IFR Intensif   IFR Très Intensif
Visi : 
Plafond : 
>= 8 km
>= 3000ft
5 à 8 km
1000 à 3000 ft
1500m à 5 km
500 à 1000 ft
800 à 1500m
200 à 500 ft
< 800m
< 200 ft
Symboles :   Orages  Brouillard  Fortes neiges  Fortes précipitations  Vent > 20 kt
SIGMETs :   Divers  Orages  Givrage  Turbulence  Onde Orograph.  Cendres Volcan.







- Altitude de l'aérodrome : 364 ft
- Code IATA : FRA


EDDF - Frankfurt Int.

DERNIER METAR :
  • 210350Z 06004KT CAVOK 01/M01 Q1034 NOSIG

METARs EXPIRÉS :
  • 210320Z 02004KT CAVOK 03/M00 Q1034 NOSIG
  • 210250Z 03004KT 350V070 CAVOK 03/M01 Q1035 NOSIG
  • 210220Z AUTO 06005KT //// R25R/P2000N R25C/P2000N R25L/P2000N R18/P2000N // ///////// 02/M01 Q1034 NOSIG
  • 210150Z 07006KT CAVOK 03/M01 Q1034 NOSIG
  • 210120Z 01003KT CAVOK 04/00 Q1035 NOSIG

TAF TAF EDDF
Valide du 21 à 00h jusqu'au 22 à 06h UTC


202300Z 2100/2206 VRB03KT CAVOK
TEMPO 2110/2117 04005KT
Pas de NOTAMs connus pour ce terrain.



MET'MAP, la Météo Aéronautique d'un coup d'oeil ! - Copyright ORBIFLY Décembre 2007 - Disclaimer

ORBIFLY MET'MAP TEAM :

Programmation & Développement : Alexandra Zaïnal
Conception & Développement : Baudouin d'Aumeries
Co-Programmation & Développement : Marc-Olivier Méhu
Soutien technique & logistique : Manuel Goepfert

Contact : metmap@orbifly.com




SOURCES & CREDITS :

   NOAA